Plymouth, Massachusetts
Current Conditions -  °F | °C
As of 3:52 PM on Saturday 22 Nov 2014 (Local Time) from KPYM Reporting Station
Clear Clear  
Wind Chill: 32°   Ceiling: Unl
Heat Index: 40°   Visibility: 10mi
Dew Point: 17°   Wind: 15mph
Humidity: 40%   Direction: 220°SW
Pressure: 30.19"   Gusts: 23mph
Location:  41.95°N, 70.66°W
Report Text: KPYM 222052Z AUTO 22013G20KT 10SM CLR 04/M08 A3019 RMK AO2 SLP223 T00441083 56020
Loading
Personal Weather Stations






























Interactive Weather Map New forecast layout! Learn more

10-Day Weather Forecast

Advertisements
Track Severe Weather on mobile